Ahlsell — OYZH — position and weather

sailwx.info

Track history (hours):
 
Tides and Currents Weather Stations Pressure Air Temp Water Temp Dewpoint Dewpoint Depression Visibility Wind Speed Wind Dir Waves Ship Positions

Ahlsell

Last reported at 2017-Jun-22 19:33 UTC. Time now 2017-Jul-24 00:40 UTC.
Position N 55°02' E 010°21'.
Warning: this ship's position is 31 days out of date.

Length 40 m; draft 4 m.

Type: Dredging. MMSI: 219000852.

Date/timePositionNaut miles runAvg speedWind from/ knotsBaromVisibWave heightAir tempDewpointWater temp
2017-Jun-22 19:33N 55°02' E 010°21'1 8.4
2017-Jun-22 19:29N 55°02' E 010°22'4 8.4
2017-Jun-22 18:58N 55°02' E 010°30'4 7.5
2017-Jun-22 18:29N 55°03' E 010°36'2 4.5
2017-Jun-22 17:58N 55°02' E 010°40'3 6.1
2017-Jun-22 17:29N 55°02' E 010°45'4 8.0
2017-Jun-22 16:56N 55°06' E 010°48'5 8.1
2017-Jun-22 16:20N 55°10' E 010°51'2 6.9
2017-Jun-22 15:59N 55°12' E 010°54'37 8.0
2017-Jun-22 11:17N 54°50' E 011°48'2 6.6
2017-Jun-22 11:00N 54°48' E 011°47'3 6.7
2017-Jun-22 10:30N 54°46' E 011°52'0 0.1
2017-Jun-22 10:00N 54°46' E 011°52'0 0.0
2017-Jun-22 09:30N 54°46' E 011°52'0 0.0
2017-Jun-22 09:00N 54°46' E 011°52'0 0.0
2017-Jun-22 08:30N 54°46' E 011°52'0 0.0
2017-Jun-22 08:00N 54°46' E 011°52'0 0.0
2017-Jun-22 07:30N 54°46' E 011°52'0 0.0
2017-Jun-22 06:47N 54°46' E 011°52'0 0.0
2017-Jun-22 06:30N 54°46' E 011°52'0 0.0
2017-Jun-22 06:00N 54°46' E 011°52'0 0.0
2017-Jun-22 05:30N 54°46' E 011°52'0 0.0
2017-Jun-22 05:01N 54°46' E 011°52'0 0.0
2017-Jun-22 04:30N 54°46' E 011°52'0 0.0
2017-Jun-22 04:00N 54°46' E 011°52'0 0.0
2017-Jun-22 03:30N 54°46' E 011°52'0 0.0
2017-Jun-22 03:00N 54°46' E 011°52'0 0.0
2017-Jun-22 02:30N 54°46' E 011°52'0 0.0
2017-Jun-22 02:00N 54°46' E 011°52'0 0.0
2017-Jun-22 01:30N 54°46' E 011°52'0 0.0
2017-Jun-22 01:00N 54°46' E 011°52'0 0.0
2017-Jun-22 00:30N 54°46' E 011°52'0 0.0
2017-Jun-22 00:00N 54°46' E 011°52'0 0.0
2017-Jun-21 16:17N 54°46' E 011°52'0 0.0
2017-Jun-21 16:00N 54°46' E 011°52'0 0.0
2017-Jun-21 15:30N 54°46' E 011°52'0 0.0
2017-Jun-21 15:00N 54°46' E 011°52'0 0.0
2017-Jun-21 14:30N 54°46' E 011°52'0 0.0
2017-Jun-21 13:02N 54°46' E 011°52'0 0.0
2017-Jun-21 13:00N 54°46' E 011°52'0 0.0
2017-Jun-21 12:30N 54°46' E 011°52'0 0.0
2017-Jun-21 12:00N 54°46' E 011°52'0 0.0
2017-Jun-21 11:30N 54°46' E 011°52'0 0.0
2017-Jun-21 11:00N 54°46' E 011°52'0 0.0
2017-Jun-21 09:32N 54°46' E 011°52'0 0.0
2017-Jun-21 09:30N 54°46' E 011°52'0 0.0
2017-Jun-21 09:00N 54°46' E 011°52'0 0.0
2017-Jun-21 08:30N 54°46' E 011°52'0 0.0
2017-Jun-21 07:59N 54°46' E 011°52'0 0.0
2017-Jun-21 07:30N 54°46' E 011°52'0 0.0
2017-Jun-21 06:59N 54°46' E 011°52'0 0.0
2017-Jun-21 05:33N 54°46' E 011°52'0 0.0
2017-Jun-21 05:30N 54°46' E 011°52'0 0.0
2017-Jun-21 04:59N 54°46' E 011°52'0 0.0
2017-Jun-21 04:30N 54°46' E 011°52'0 0.0
2017-Jun-21 04:00N 54°46' E 011°52'0 0.0
2017-Jun-21 03:30N 54°46' E 011°52'0 0.0
2017-Jun-21 03:00N 54°46' E 011°52'0 0.0
2017-Jun-21 02:30N 54°46' E 011°52'0 0.0
2017-Jun-21 02:00N 54°46' E 011°52'0 0.0
2017-Jun-21 01:30N 54°46' E 011°52'0 0.0
2017-Jun-21 01:00N 54°46' E 011°52'0 0.0
2017-Jun-20 23:47N 54°46' E 011°52'0 0.0
2017-Jun-20 23:30N 54°46' E 011°52'0 0.0
2017-Jun-20 23:00N 54°46' E 011°52'0 0.0
2017-Jun-20 22:30N 54°46' E 011°52'0 0.0
2017-Jun-20 20:47N 54°46' E 011°52'0 0.0
2017-Jun-20 20:30N 54°46' E 011°52'0 0.0
2017-Jun-20 20:00N 54°46' E 011°52'0 0.0
2017-Jun-20 19:30N 54°46' E 011°52'0 0.0
2017-Jun-20 19:00N 54°46' E 011°52'0 0.0
2017-Jun-20 18:30N 54°46' E 011°52'0 0.0
2017-Jun-20 18:00N 54°46' E 011°52'0 0.0
2017-Jun-20 17:30N 54°46' E 011°52'0 0.0
2017-Jun-20 17:00N 54°46' E 011°52'0 0.0
2017-Jun-20 16:30N 54°46' E 011°52'0 0.0
2017-Jun-20 16:00N 54°46' E 011°52'0 0.0
2017-Jun-20 15:30N 54°46' E 011°52'0 0.0
2017-Jun-20 15:00N 54°46' E 011°52'0 0.0
2017-Jun-20 13:30N 54°46' E 011°52'0 0.0
2017-Jun-20 13:00N 54°46' E 011°52'0 0.0
2017-Jun-20 12:30N 54°46' E 011°52'0 0.0
2017-Jun-20 12:00N 54°46' E 011°52'0 0.0
2017-Jun-20 11:30N 54°46' E 011°52'0 0.0
2017-Jun-20 11:00N 54°46' E 011°52'0 0.0
2017-Jun-20 10:30N 54°46' E 011°52'0 0.0
2017-Jun-20 09:16N 54°46' E 011°52'0 0.0
2017-Jun-20 09:00N 54°46' E 011°52'0 0.0
2017-Jun-20 08:30N 54°46' E 011°52'0 0.0
2017-Jun-20 08:00N 54°46' E 011°52'0 0.0
2017-Jun-20 07:30N 54°46' E 011°52'0 0.0
2017-Jun-20 07:00N 54°46' E 011°52'0 0.0
2017-Jun-20 05:18N 54°46' E 011°52'0 0.0
2017-Jun-20 05:00N 54°46' E 011°52'0 0.0
2017-Jun-20 04:30N 54°46' E 011°52'0 0.0
2017-Jun-20 04:00N 54°46' E 011°52'0 0.0
2017-Jun-20 03:30N 54°46' E 011°52'0 0.0
2017-Jun-20 03:00N 54°46' E 011°52'0 0.0
2017-Jun-20 02:30N 54°46' E 011°52'0 0.0
2017-Jun-20 01:01N 54°46' E 011°52'0 0.0
2017-Jun-20 01:00N 54°46' E 011°52'0 0.0
2017-Jun-20 00:30N 54°46' E 011°52'0 0.0
2017-Jun-20 00:00N 54°46' E 011°52'0 0.0
2017-Jun-19 23:30N 54°46' E 011°52'0 0.0
2017-Jun-19 23:00N 54°46' E 011°52'0 0.0
2017-Jun-19 22:30N 54°46' E 011°52'0 0.0
2017-Jun-19 22:00N 54°46' E 011°52'0 0.0
2017-Jun-19 21:30N 54°46' E 011°52'0 0.0
2017-Jun-19 21:00N 54°46' E 011°52'0 0.0
2017-Jun-19 20:30N 54°46' E 011°52'0 0.0
2017-Jun-19 20:00N 54°46' E 011°52'0 0.0
2017-Jun-19 19:30N 54°46' E 011°52'0 0.0
2017-Jun-19 19:00N 54°46' E 011°52'0 0.0
2017-Jun-19 18:17N 54°46' E 011°52'0 0.0
2017-Jun-19 18:00N 54°46' E 011°52'0 0.0
2017-Jun-19 17:30N 54°46' E 011°52'0 0.0
2017-Jun-19 17:00N 54°46' E 011°52'0 0.0
2017-Jun-19 16:30N 54°46' E 011°52'12 4.8
2017-Jun-19 14:06N 54°56' E 011°40'27 5.7
2017-Jun-19 09:25N 54°51' E 012°26'4 8.0
2017-Jun-19 08:58N 54°52' E 012°32'4 8.0
2017-Jun-19 08:28N 54°53' E 012°39'4 8.1
2017-Jun-19 07:59N 54°54' E 012°45'4 8.0
2017-Jun-19 07:30N 54°54' E 012°52'4 7.8
2017-Jun-19 06:59N 54°55' E 012°59'4 7.9
2017-Jun-19 06:30N 54°56' E 013°06'4 8.3
2017-Jun-19 06:00N 54°56' E 013°13'4 8.2
2017-Jun-19 05:30N 54°57' E 013°20'4 8.0
2017-Jun-19 05:00N 54°58' E 013°27'4 8.0
2017-Jun-19 04:30N 54°59' E 013°33'4 7.9
2017-Jun-19 04:00N 54°60' E 013°40'4 8.0
2017-Jun-19 03:28N 55°00' E 013°47'4 7.8
2017-Jun-19 02:59N 55°01' E 013°54'4 7.7
2017-Jun-19 02:30N 55°01' E 014°00'4 7.6
2017-Jun-19 02:00N 55°03' E 014°07'4 7.9
2017-Jun-19 01:30N 55°03' E 014°14'4 7.8
2017-Jun-19 01:00N 55°04' E 014°20'4 7.7
2017-Jun-19 00:30N 55°04' E 014°27'4 7.8
2017-Jun-19 00:00N 55°05' E 014°34'4 7.8
2017-Jun-18 23:30N 55°06' E 014°40'1 1.4
2017-Jun-18 23:00N 55°06' E 014°41'0 0.0
2017-Jun-18 22:30N 55°06' E 014°41'0 0.0
2017-Jun-18 22:00N 55°06' E 014°41'0 0.0
2017-Jun-18 21:30N 55°06' E 014°41'0 0.0
2017-Jun-18 21:00N 55°06' E 014°41'0 0.0
2017-Jun-18 20:30N 55°06' E 014°41'0 0.0
2017-Jun-18 20:00N 55°06' E 014°41'0 0.0
2017-Jun-18 19:30N 55°06' E 014°41'0 0.0
2017-Jun-18 19:00N 55°06' E 014°41'0 0.0
2017-Jun-18 18:30N 55°06' E 014°41'0 0.0
2017-Jun-18 18:00N 55°06' E 014°41'0 0.0
2017-Jun-18 17:30N 55°06' E 014°41'0 0.0
2017-Jun-18 17:00N 55°06' E 014°41'0 0.0
2017-Jun-18 16:30N 55°06' E 014°41'0 0.0
2017-Jun-18 16:00N 55°06' E 014°41'0 0.0
2017-Jun-18 15:30N 55°06' E 014°41'0 0.0
2017-Jun-18 15:00N 55°06' E 014°41'0 0.0
2017-Jun-18 14:00N 55°06' E 014°41'0 0.0
2017-Jun-18 13:30N 55°06' E 014°41'0 0.0
2017-Jun-18 13:00N 55°06' E 014°41'0 0.0
2017-Jun-18 12:30N 55°06' E 014°41'0 0.0
2017-Jun-18 12:01N 55°06' E 014°41'0 0.0
2017-Jun-18 11:30N 55°06' E 014°41'0 0.0
2017-Jun-18 11:00N 55°06' E 014°41'0 0.0
2017-Jun-18 10:30N 55°06' E 014°41'0 0.0
2017-Jun-18 10:00N 55°06' E 014°41'0 0.0
2017-Jun-18 09:30N 55°06' E 014°41'0 0.0
2017-Jun-18 09:00N 55°06' E 014°41'0 0.0
2017-Jun-18 08:30N 55°06' E 014°41'0 0.0
2017-Jun-18 08:00N 55°06' E 014°41'0 0.0
2017-Jun-18 07:30N 55°06' E 014°41'0 0.0
2017-Jun-18 07:00N 55°06' E 014°41'0 0.0
2017-Jun-18 06:30N 55°06' E 014°41'0 0.0
2017-Jun-18 06:00N 55°06' E 014°41'0 0.0
2017-Jun-18 05:30N 55°06' E 014°41'0 0.0
2017-Jun-18 05:00N 55°06' E 014°41'0 0.0
2017-Jun-18 04:30N 55°06' E 014°41'0 0.0
2017-Jun-18 04:00N 55°06' E 014°41'0 0.0
2017-Jun-18 03:30N 55°06' E 014°41'0 0.0
2017-Jun-18 03:00N 55°06' E 014°41'0 0.0
2017-Jun-18 02:30N 55°06' E 014°41'0 0.0
2017-Jun-18 02:00N 55°06' E 014°41'0 0.0
2017-Jun-18 01:30N 55°06' E 014°41'0 0.0
2017-Jun-18 01:00N 55°06' E 014°41'0 0.0
2017-Jun-18 00:30N 55°06' E 014°41'0 0.0
2017-Jun-18 00:00N 55°06' E 014°41'0 0.0
2017-Jun-17 23:30N 55°06' E 014°41'0 0.0
2017-Jun-17 23:00N 55°06' E 014°41'0 0.0
2017-Jun-17 22:30N 55°06' E 014°41'0 0.0
2017-Jun-17 22:00N 55°06' E 014°41'0 0.0
2017-Jun-17 21:30N 55°06' E 014°41'0 0.0
2017-Jun-17 21:00N 55°06' E 014°41'0 0.0
2017-Jun-17 20:30N 55°06' E 014°41'0 0.0
2017-Jun-17 20:01N 55°06' E 014°41'0 0.0
2017-Jun-17 19:30N 55°06' E 014°41'0 0.0
2017-Jun-17 19:00N 55°06' E 014°41'0 0.0
2017-Jun-17 18:30N 55°06' E 014°41'0 0.0
2017-Jun-17 18:01N 55°06' E 014°41'0 0.0
2017-Jun-17 17:30N 55°06' E 014°41'0 0.0
2017-Jun-17 17:00N 55°06' E 014°41'0 0.0
2017-Jun-17 16:30N 55°06' E 014°41'1 1.4
2017-Jun-17 16:00N 55°05' E 014°41'3 5.6
2017-Jun-17 15:30N 55°03' E 014°40'0 0.9
2017-Jun-17 15:01N 55°02' E 014°41'0 0.0
2017-Jun-17 14:30N 55°02' E 014°41'0 0.0
2017-Jun-17 13:30N 55°02' E 014°41'0 0.0
2017-Jun-17 13:00N 55°02' E 014°41'0 0.0
2017-Jun-17 12:31N 55°02' E 014°41'0 0.0
2017-Jun-17 12:00N 55°02' E 014°41'0 0.0
2017-Jun-17 11:30N 55°02' E 014°41'2 4.9
2017-Jun-17 11:00N 55°05' E 014°41'1 2.8
2017-Jun-17 10:30N 55°06' E 014°41'0 0.0
2017-Jun-17 10:00N 55°06' E 014°41'0 0.0
2017-Jun-17 09:30N 55°06' E 014°41'0 0.0
2017-Jun-17 09:00N 55°06' E 014°41'0 0.0
2017-Jun-17 08:30N 55°06' E 014°41'0 0.0
2017-Jun-17 08:00N 55°06' E 014°41'2 4.0
2017-Jun-17 07:30N 55°04' E 014°40'2 4.2
2017-Jun-17 07:00N 55°02' E 014°42'2 4.4
2017-Jun-17 06:30N 55°00' E 014°44'2 4.6
2017-Jun-17 06:00N 54°59' E 014°47'2 4.2
2017-Jun-17 05:30N 54°57' E 014°49'1 1.8
2017-Jun-17 05:00N 54°56' E 014°50'0 0.0
2017-Jun-17 04:30N 54°56' E 014°50'1 2.0
2017-Jun-17 04:00N 54°57' E 014°49'4 7.9
2017-Jun-17 03:30N 55°00' E 014°45'4 8.1
2017-Jun-17 03:00N 55°04' E 014°42'2 4.0
2017-Jun-17 02:30N 55°06' E 014°41'0 0.0
2017-Jun-17 02:01N 55°06' E 014°41'0 0.0
2017-Jun-17 01:30N 55°06' E 014°41'0 0.0
2017-Jun-17 01:00N 55°06' E 014°41'0 0.0
2017-Jun-17 00:30N 55°06' E 014°41'1 2.4
2017-Jun-17 00:00N 55°05' E 014°40'2 4.0
2017-Jun-16 23:30N 55°03' E 014°40'2 3.8
2017-Jun-16 23:00N 55°01' E 014°42'2 3.9
2017-Jun-16 22:30N 54°60' E 014°44'2 3.6
2017-Jun-16 22:00N 54°59' E 014°46'2 3.6
2017-Jun-16 21:30N 54°57' E 014°48'1 2.8
2017-Jun-16 21:00N 54°56' E 014°50'0 0.0
2017-Jun-16 20:30N 54°56' E 014°50'0 0.1
2017-Jun-16 20:00N 54°56' E 014°50'4 7.7
2017-Jun-16 19:30N 54°60' E 014°47'4 8.0
2017-Jun-16 19:00N 55°03' E 014°43'3 6.2
2017-Jun-16 18:30N 55°06' E 014°41'0 0.0
2017-Jun-16 18:00N 55°06' E 014°41'0 0.0
2017-Jun-16 17:30N 55°06' E 014°41'0 0.0
2017-Jun-16 17:00N 55°06' E 014°41'1 1.7
2017-Jun-16 16:30N 55°05' E 014°40'2 3.4
2017-Jun-16 16:00N 55°04' E 014°40'2 4.2
2017-Jun-16 15:30N 55°02' E 014°41'2 4.1
2017-Jun-16 15:00N 55°00' E 014°44'4 4.1
2017-Jun-16 14:00N 54°57' E 014°48'1 2.7
2017-Jun-16 13:31N 54°56' E 014°50'0 0.0
2017-Jun-16 13:00N 54°56' E 014°50'0 0.0
2017-Jun-16 12:31N 54°56' E 014°50'3 6.2
2017-Jun-16 12:00N 54°59' E 014°47'4 7.7
2017-Jun-16 11:30N 55°02' E 014°44'4 7.5
2017-Jun-16 11:01N 55°05' E 014°41'1 1.1
2017-Jun-16 10:31N 55°06' E 014°41'0 0.0
2017-Jun-16 10:00N 55°06' E 014°41'0 0.0
2017-Jun-16 09:30N 55°06' E 014°41'0 0.5
2017-Jun-16 09:00N 55°06' E 014°41'2 5.0
2017-Jun-16 08:30N 55°03' E 014°42'3 5.0
2017-Jun-16 08:00N 55°01' E 014°45'3 5.4
2017-Jun-16 07:30N 54°59' E 014°48'3 5.2
2017-Jun-16 07:00N 54°57' E 014°51'0 0.0
2017-Jun-16 06:30N 54°57' E 014°51'0 0.0
2017-Jun-16 06:00N 54°57' E 014°51'0 0.8
2017-Jun-16 05:30N 54°57' E 014°50'4 7.5
2017-Jun-16 05:00N 55°00' E 014°46'4 7.3
2017-Jun-16 04:30N 55°03' E 014°42'3 5.2
2017-Jun-16 04:00N 55°06' E 014°41'0 0.0
2017-Jun-16 03:30N 55°06' E 014°41'0 0.0
2017-Jun-16 03:00N 55°06' E 014°41'0 0.0
2017-Jun-16 02:30N 55°06' E 014°41'2 3.5
2017-Jun-16 02:00N 55°04' E 014°41'2 4.2
2017-Jun-16 01:30N 55°02' E 014°41'0 0.1
2017-Jun-16 01:01N 55°02' E 014°41'0 0.0
2017-Jun-16 00:31N 55°02' E 014°41'0 0.0
2017-Jun-16 00:00N 55°02' E 014°41'0 0.0
2017-Jun-15 23:30N 55°02' E 014°41'0 0.0
2017-Jun-15 23:00N 55°02' E 014°41'0 0.1
2017-Jun-15 22:30N 55°02' E 014°41'0 0.0
2017-Jun-15 22:00N 55°02' E 014°41'0 0.8
2017-Jun-15 21:30N 55°03' E 014°41'3 6.5
2017-Jun-15 21:01N 55°06' E 014°41'0 0.3
2017-Jun-15 20:30N 55°06' E 014°41'0 0.0
2017-Jun-15 20:00N 55°06' E 014°41'0 0.0
2017-Jun-15 19:30N 55°06' E 014°41'1 1.7
2017-Jun-15 19:00N 55°05' E 014°41'3 6.3
2017-Jun-15 18:31N 55°02' E 014°41'0 0.0
2017-Jun-15 18:00N 55°02' E 014°41'0 0.0
2017-Jun-15 17:30N 55°02' E 014°41'0 0.0
2017-Jun-15 17:00N 55°02' E 014°41'0 0.0
2017-Jun-15 16:30N 55°02' E 014°41'0 0.1
2017-Jun-15 16:00N 55°02' E 014°41'0 0.1
2017-Jun-15 15:30N 55°02' E 014°41'0 0.0
2017-Jun-15 15:00N 55°02' E 014°41'0 0.0
2017-Jun-15 14:30N 55°02' E 014°41'0 0.0
2017-Jun-15 13:30N 55°02' E 014°41'0 0.0
2017-Jun-15 13:00N 55°02' E 014°41'1 2.3
2017-Jun-15 12:30N 55°03' E 014°41'3 5.4
2017-Jun-15 12:00N 55°06' E 014°41'0 0.0
2017-Jun-15 11:30N 55°06' E 014°41'0 0.0
2017-Jun-15 11:00N 55°06' E 014°41'0 0.0
2017-Jun-15 10:30N 55°06' E 014°41'2 4.4
2017-Jun-15 10:00N 55°04' E 014°41'2 3.3
2017-Jun-15 09:30N 55°02' E 014°41'0 0.0
2017-Jun-15 09:00N 55°02' E 014°41'0 0.1
2017-Jun-15 08:30N 55°02' E 014°41'0 0.0
2017-Jun-15 08:00N 55°02' E 014°41'0 0.0
2017-Jun-15 07:30N 55°02' E 014°41'0 0.0
2017-Jun-15 07:00N 55°02' E 014°41'0 0.0
2017-Jun-15 06:30N 55°02' E 014°41'0 0.0
2017-Jun-15 06:01N 55°02' E 014°41'4 7.0
2017-Jun-15 05:30N 55°06' E 014°41'0 0.7
2017-Jun-15 05:00N 55°06' E 014°41'0 0.0
2017-Jun-15 04:30N 55°06' E 014°41'0 0.0
2017-Jun-15 04:00N 55°06' E 014°41'0 0.0
2017-Jun-15 03:30N 55°06' E 014°41'0 0.0
2017-Jun-15 03:00N 55°06' E 014°41'0 0.0
2017-Jun-15 02:31N 55°06' E 014°41'3 5.8
2017-Jun-15 02:00N 55°03' E 014°41'1 1.8
2017-Jun-15 01:30N 55°02' E 014°41'0 0.0
2017-Jun-15 01:01N 55°02' E 014°41'0 0.0
2017-Jun-15 00:30N 55°02' E 014°41'0 0.0
2017-Jun-15 00:00N 55°02' E 014°41'0 0.0
2017-Jun-14 23:30N 55°02' E 014°41'0 0.0
2017-Jun-14 23:00N 55°02' E 014°41'0 0.4
2017-Jun-14 22:30N 55°02' E 014°41'4 7.2
2017-Jun-14 22:00N 55°06' E 014°41'0 0.1
2017-Jun-14 21:30N 55°06' E 014°41'0 0.0
2017-Jun-14 21:00N 55°06' E 014°41'0 0.0
2017-Jun-14 20:31N 55°06' E 014°41'0 0.6
2017-Jun-14 20:00N 55°06' E 014°41'3 6.0
2017-Jun-14 19:30N 55°03' E 014°41'1 1.3
2017-Jun-14 19:00N 55°02' E 014°41'0 0.0
2017-Jun-14 18:30N 55°02' E 014°41'0 0.0
2017-Jun-14 18:00N 55°02' E 014°41'0 0.0
2017-Jun-14 17:30N 55°02' E 014°41'0 0.1
2017-Jun-14 17:00N 55°02' E 014°41'0 0.0
2017-Jun-14 16:30N 55°02' E 014°41'0 0.1
2017-Jun-14 16:00N 55°02' E 014°41'0 0.0
2017-Jun-14 15:31N 55°02' E 014°41'3 6.2
2017-Jun-14 15:00N 55°05' E 014°41'1 0.7
2017-Jun-14 14:00N 55°06' E 014°41'0 0.0
2017-Jun-14 13:30N 55°06' E 014°41'1 1.4
2017-Jun-14 13:01N 55°05' E 014°40'2 4.0
2017-Jun-14 12:30N 55°03' E 014°40'1 2.5
2017-Jun-14 12:00N 55°02' E 014°41'0 0.0
2017-Jun-14 11:30N 55°02' E 014°41'0 0.0
2017-Jun-14 11:00N 55°02' E 014°41'0 0.0
2017-Jun-14 10:30N 55°02' E 014°41'0 0.0
2017-Jun-14 10:00N 55°02' E 014°41'3 5.7
2017-Jun-14 09:31N 55°05' E 014°40'1 2.2
2017-Jun-14 09:00N 55°06' E 014°41'0 0.0
2017-Jun-14 08:30N 55°06' E 014°41'0 0.0
2017-Jun-14 08:00N 55°06' E 014°41'0 0.0
2017-Jun-14 07:30N 55°06' E 014°41'0 0.0
2017-Jun-14 07:00N 55°06' E 014°41'0 0.2
2017-Jun-14 06:31N 55°06' E 014°41'0 0.0
2017-Jun-14 06:00N 55°06' E 014°41'1 2.6
2017-Jun-14 05:31N 55°05' E 014°40'2 4.8
2017-Jun-14 05:00N 55°02' E 014°41'0 0.2
2017-Jun-14 04:31N 55°02' E 014°41'0 0.0
2017-Jun-14 04:00N 55°02' E 014°41'0 0.0
2017-Jun-14 03:30N 55°02' E 014°41'0 0.1
2017-Jun-14 03:00N 55°02' E 014°41'0 0.0
2017-Jun-14 02:31N 55°02' E 014°41'0 0.1
2017-Jun-14 02:01N 55°02' E 014°41'0 0.6
2017-Jun-14 01:30N 55°02' E 014°41'3 6.8
2017-Jun-14 01:01N 55°06' E 014°41'0 0.3
2017-Jun-14 00:30N 55°06' E 014°41'0 0.0
2017-Jun-14 00:01N 55°06' E 014°41'0 0.0
2017-Jun-13 23:31N 55°06' E 014°41'1 1.8
2017-Jun-13 23:01N 55°05' E 014°40'2 3.9
2017-Jun-13 22:30N 55°03' E 014°40'1 2.6
2017-Jun-13 22:01N 55°02' E 014°41'0 0.0
2017-Jun-13 21:31N 55°02' E 014°41'0 0.1
2017-Jun-13 21:00N 55°02' E 014°41'0 0.0
2017-Jun-13 20:30N 55°02' E 014°41'0 0.0
2017-Jun-13 20:00N 55°02' E 014°41'0 0.1
2017-Jun-13 19:31N 55°02' E 014°41'0 0.0
2017-Jun-13 19:00N 55°02' E 014°41'0 0.0
2017-Jun-13 18:31N 55°02' E 014°41'0 0.0
2017-Jun-13 18:00N 55°02' E 014°41'0 0.0
2017-Jun-13 17:31N 55°02' E 014°41'1 2.1
2017-Jun-13 17:01N 55°01' E 014°42'2 4.5
2017-Jun-13 16:30N 54°59' E 014°43'2 3.5
2017-Jun-13 16:00N 54°58' E 014°45'1 2.4
2017-Jun-13 15:30N 54°58' E 014°47'2 4.9
2017-Jun-13 15:00N 54°60' E 014°45'2 4.7
2017-Jun-13 14:30N 55°02' E 014°44'4 4.3
2017-Jun-13 13:30N 55°06' E 014°41'0 0.0
2017-Jun-13 13:01N 55°06' E 014°41'0 0.0
2017-Jun-13 12:30N 55°06' E 014°41'0 0.0
2017-Jun-13 12:00N 55°06' E 014°41'0 0.0
2017-Jun-13 11:31N 55°06' E 014°41'0 0.0
2017-Jun-13 11:01N 55°06' E 014°41'0 0.0
2017-Jun-13 10:31N 55°06' E 014°41'0 0.0
2017-Jun-13 10:01N 55°06' E 014°41'0 0.0
2017-Jun-13 09:31N 55°06' E 014°41'0 0.0
2017-Jun-13 09:01N 55°06' E 014°41'0 0.0
2017-Jun-13 08:31N 55°06' E 014°41'0 0.0
2017-Jun-13 08:01N 55°06' E 014°41'0 0.0
2017-Jun-13 07:30N 55°06' E 014°41'0 0.0
2017-Jun-13 07:00N 55°06' E 014°41'0 0.0
2017-Jun-13 06:31N 55°06' E 014°41'0 0.0
2017-Jun-13 06:00N 55°06' E 014°41'0 0.0
2017-Jun-13 05:31N 55°06' E 014°41'0 0.0
2017-Jun-13 05:00N 55°06' E 014°41'0 0.0
2017-Jun-13 04:30N 55°06' E 014°41'0 0.0
2017-Jun-13 04:00N 55°06' E 014°41'0 0.0
2017-Jun-13 03:31N 55°06' E 014°41'0 0.0
2017-Jun-13 03:01N 55°06' E 014°41'0 0.0
2017-Jun-13 02:31N 55°06' E 014°41'0 0.0
2017-Jun-13 02:01N 55°06' E 014°41'0 0.0
2017-Jun-13 01:30N 55°06' E 014°41'0 0.0
2017-Jun-13 01:00N 55°06' E 014°41'0 0.0
2017-Jun-13 00:31N 55°06' E 014°41'0 0.0
2017-Jun-13 00:00N 55°06' E 014°41'0 0.0
2017-Jun-12 23:30N 55°06' E 014°41'0 0.0
2017-Jun-12 23:00N 55°06' E 014°41'0 0.0
2017-Jun-12 22:31N 55°06' E 014°41'0 0.0
2017-Jun-12 22:01N 55°06' E 014°41'0 0.0
2017-Jun-12 21:30N 55°06' E 014°41'0 0.0
2017-Jun-12 21:00N 55°06' E 014°41'0 0.0
2017-Jun-12 20:30N 55°06' E 014°41'0 0.0
2017-Jun-12 20:00N 55°06' E 014°41'  
Track history (hours):
 
Tides and Currents Weather Stations Pressure Air Temp Water Temp Dewpoint Dewpoint Depression Visibility Wind Speed Wind Dir Waves Ship Positions

Ahlsell

Last reported at 2017-Jun-22 19:33 UTC. Time now 2017-Jul-24 00:40 UTC.
Position N 55°02' E 010°21'.
Warning: this ship's position is 31 days out of date.

Length 40 m; draft 4 m.

Type: Dredging. MMSI: 219000852.

Date/timePositionNaut miles runAvg speedWind from/ knotsBaromVisibWave heightAir tempDewpointWater temp
2017-Jun-22 19:33N 55°02' E 010°21'1 8.4
2017-Jun-22 19:29N 55°02' E 010°22'4 8.4
2017-Jun-22 18:58N 55°02' E 010°30'4 7.5
2017-Jun-22 18:29N 55°03' E 010°36'2 4.5
2017-Jun-22 17:58N 55°02' E 010°40'3 6.1
2017-Jun-22 17:29N 55°02' E 010°45'4 8.0
2017-Jun-22 16:56N 55°06' E 010°48'5 8.1
2017-Jun-22 16:20N 55°10' E 010°51'2 6.9
2017-Jun-22 15:59N 55°12' E 010°54'37 8.0
2017-Jun-22 11:17N 54°50' E 011°48'2 6.6
2017-Jun-22 11:00N 54°48' E 011°47'3 6.7
2017-Jun-22 10:30N 54°46' E 011°52'0 0.1
2017-Jun-22 10:00N 54°46' E 011°52'0 0.0
2017-Jun-22 09:30N 54°46' E 011°52'0 0.0
2017-Jun-22 09:00N 54°46' E 011°52'0 0.0
2017-Jun-22 08:30N 54°46' E 011°52'0 0.0
2017-Jun-22 08:00N 54°46' E 011°52'0 0.0
2017-Jun-22 07:30N 54°46' E 011°52'0 0.0
2017-Jun-22 06:47N 54°46' E 011°52'0 0.0
2017-Jun-22 06:30N 54°46' E 011°52'0 0.0
2017-Jun-22 06:00N 54°46' E 011°52'0 0.0
2017-Jun-22 05:30N 54°46' E 011°52'0 0.0
2017-Jun-22 05:01N 54°46' E 011°52'0 0.0
2017-Jun-22 04:30N 54°46' E 011°52'0 0.0
2017-Jun-22 04:00N 54°46' E 011°52'0 0.0
2017-Jun-22 03:30N 54°46' E 011°52'0 0.0
2017-Jun-22 03:00N 54°46' E 011°52'0 0.0
2017-Jun-22 02:30N 54°46' E 011°52'0 0.0
2017-Jun-22 02:00N 54°46' E 011°52'0 0.0
2017-Jun-22 01:30N 54°46' E 011°52'0 0.0
2017-Jun-22 01:00N 54°46' E 011°52'0 0.0
2017-Jun-22 00:30N 54°46' E 011°52'0 0.0
2017-Jun-22 00:00N 54°46' E 011°52'0 0.0
2017-Jun-21 16:17N 54°46' E 011°52'0 0.0
2017-Jun-21 16:00N 54°46' E 011°52'0 0.0
2017-Jun-21 15:30N 54°46' E 011°52'0 0.0
2017-Jun-21 15:00N 54°46' E 011°52'0 0.0
2017-Jun-21 14:30N 54°46' E 011°52'0 0.0
2017-Jun-21 13:02N 54°46' E 011°52'0 0.0
2017-Jun-21 13:00N 54°46' E 011°52'0 0.0
2017-Jun-21 12:30N 54°46' E 011°52'0 0.0
2017-Jun-21 12:00N 54°46' E 011°52'0 0.0
2017-Jun-21 11:30N 54°46' E 011°52'0 0.0
2017-Jun-21 11:00N 54°46' E 011°52'0 0.0
2017-Jun-21 09:32N 54°46' E 011°52'0 0.0
2017-Jun-21 09:30N 54°46' E 011°52'0 0.0
2017-Jun-21 09:00N 54°46' E 011°52'0 0.0
2017-Jun-21 08:30N 54°46' E 011°52'0 0.0
2017-Jun-21 07:59N 54°46' E 011°52'0 0.0
2017-Jun-21 07:30N 54°46' E 011°52'0 0.0
2017-Jun-21 06:59N 54°46' E 011°52'0 0.0
2017-Jun-21 05:33N 54°46' E 011°52'0 0.0
2017-Jun-21 05:30N 54°46' E 011°52'0 0.0
2017-Jun-21 04:59N 54°46' E 011°52'0 0.0
2017-Jun-21 04:30N 54°46' E 011°52'0 0.0
2017-Jun-21 04:00N 54°46' E 011°52'0 0.0
2017-Jun-21 03:30N 54°46' E 011°52'0 0.0
2017-Jun-21 03:00N 54°46' E 011°52'0 0.0
2017-Jun-21 02:30N 54°46' E 011°52'0 0.0
2017-Jun-21 02:00N 54°46' E 011°52'0 0.0
2017-Jun-21 01:30N 54°46' E 011°52'0 0.0
2017-Jun-21 01:00N 54°46' E 011°52'0 0.0
2017-Jun-20 23:47N 54°46' E 011°52'0 0.0
2017-Jun-20 23:30N 54°46' E 011°52'0 0.0
2017-Jun-20 23:00N 54°46' E 011°52'0 0.0
2017-Jun-20 22:30N 54°46' E 011°52'0 0.0
2017-Jun-20 20:47N 54°46' E 011°52'0 0.0
2017-Jun-20 20:30N 54°46' E 011°52'0 0.0
2017-Jun-20 20:00N 54°46' E 011°52'0 0.0
2017-Jun-20 19:30N 54°46' E 011°52'0 0.0
2017-Jun-20 19:00N 54°46' E 011°52'0 0.0
2017-Jun-20 18:30N 54°46' E 011°52'0 0.0
2017-Jun-20 18:00N 54°46' E 011°52'0 0.0
2017-Jun-20 17:30N 54°46' E 011°52'0 0.0
2017-Jun-20 17:00N 54°46' E 011°52'0 0.0
2017-Jun-20 16:30N 54°46' E 011°52'0 0.0
2017-Jun-20 16:00N 54°46' E 011°52'0 0.0
2017-Jun-20 15:30N 54°46' E 011°52'0 0.0
2017-Jun-20 15:00N 54°46' E 011°52'0 0.0
2017-Jun-20 13:30N 54°46' E 011°52'0 0.0
2017-Jun-20 13:00N 54°46' E 011°52'0 0.0
2017-Jun-20 12:30N 54°46' E 011°52'0 0.0
2017-Jun-20 12:00N 54°46' E 011°52'0 0.0
2017-Jun-20 11:30N 54°46' E 011°52'0 0.0
2017-Jun-20 11:00N 54°46' E 011°52'0 0.0
2017-Jun-20 10:30N 54°46' E 011°52'0 0.0
2017-Jun-20 09:16N 54°46' E 011°52'0 0.0
2017-Jun-20 09:00N 54°46' E 011°52'0 0.0
2017-Jun-20 08:30N 54°46' E 011°52'0 0.0
2017-Jun-20 08:00N 54°46' E 011°52'0 0.0
2017-Jun-20 07:30N 54°46' E 011°52'0 0.0
2017-Jun-20 07:00N 54°46' E 011°52'0 0.0
2017-Jun-20 05:18N 54°46' E 011°52'0 0.0
2017-Jun-20 05:00N 54°46' E 011°52'0 0.0
2017-Jun-20 04:30N 54°46' E 011°52'0 0.0
2017-Jun-20 04:00N 54°46' E 011°52'0 0.0
2017-Jun-20 03:30N 54°46' E 011°52'0 0.0
2017-Jun-20 03:00N 54°46' E 011°52'0 0.0
2017-Jun-20 02:30N 54°46' E 011°52'0 0.0
2017-Jun-20 01:01N 54°46' E 011°52'0 0.0
2017-Jun-20 01:00N 54°46' E 011°52'0 0.0
2017-Jun-20 00:30N 54°46' E 011°52'0 0.0
2017-Jun-20 00:00N 54°46' E 011°52'0 0.0
2017-Jun-19 23:30N 54°46' E 011°52'0 0.0
2017-Jun-19 23:00N 54°46' E 011°52'0 0.0
2017-Jun-19 22:30N 54°46' E 011°52'0 0.0
2017-Jun-19 22:00N 54°46' E 011°52'0 0.0
2017-Jun-19 21:30N 54°46' E 011°52'0 0.0
2017-Jun-19 21:00N 54°46' E 011°52'0 0.0
2017-Jun-19 20:30N 54°46' E 011°52'0 0.0
2017-Jun-19 20:00N 54°46' E 011°52'0 0.0
2017-Jun-19 19:30N 54°46' E 011°52'0 0.0
2017-Jun-19 19:00N 54°46' E 011°52'0 0.0
2017-Jun-19 18:17N 54°46' E 011°52'0 0.0
2017-Jun-19 18:00N 54°46' E 011°52'0 0.0
2017-Jun-19 17:30N 54°46' E 011°52'0 0.0
2017-Jun-19 17:00N 54°46' E 011°52'0 0.0
2017-Jun-19 16:30N 54°46' E 011°52'12 4.8
2017-Jun-19 14:06N 54°56' E 011°40'27 5.7
2017-Jun-19 09:25N 54°51' E 012°26'4 8.0
2017-Jun-19 08:58N 54°52' E 012°32'4 8.0
2017-Jun-19 08:28N 54°53' E 012°39'4 8.1
2017-Jun-19 07:59N 54°54' E 012°45'4 8.0
2017-Jun-19 07:30N 54°54' E 012°52'4 7.8
2017-Jun-19 06:59N 54°55' E 012°59'4 7.9
2017-Jun-19 06:30N 54°56' E 013°06'4 8.3
2017-Jun-19 06:00N 54°56' E 013°13'4 8.2
2017-Jun-19 05:30N 54°57' E 013°20'4 8.0
2017-Jun-19 05:00N 54°58' E 013°27'4 8.0
2017-Jun-19 04:30N 54°59' E 013°33'4 7.9
2017-Jun-19 04:00N 54°60' E 013°40'4 8.0
2017-Jun-19 03:28N 55°00' E 013°47'4 7.8
2017-Jun-19 02:59N 55°01' E 013°54'4 7.7
2017-Jun-19 02:30N 55°01' E 014°00'4 7.6
2017-Jun-19 02:00N 55°03' E 014°07'4 7.9
2017-Jun-19 01:30N 55°03' E 014°14'4 7.8
2017-Jun-19 01:00N 55°04' E 014°20'4 7.7
2017-Jun-19 00:30N 55°04' E 014°27'4 7.8
2017-Jun-19 00:00N 55°05' E 014°34'4 7.8
2017-Jun-18 23:30N 55°06' E 014°40'1 1.4
2017-Jun-18 23:00N 55°06' E 014°41'0 0.0
2017-Jun-18 22:30N 55°06' E 014°41'0 0.0
2017-Jun-18 22:00N 55°06' E 014°41'0 0.0
2017-Jun-18 21:30N 55°06' E 014°41'0 0.0
2017-Jun-18 21:00N 55°06' E 014°41'0 0.0
2017-Jun-18 20:30N 55°06' E 014°41'0 0.0
2017-Jun-18 20:00N 55°06' E 014°41'0 0.0
2017-Jun-18 19:30N 55°06' E 014°41'0 0.0
2017-Jun-18 19:00N 55°06' E 014°41'0 0.0
2017-Jun-18 18:30N 55°06' E 014°41'0 0.0
2017-Jun-18 18:00N 55°06' E 014°41'0 0.0
2017-Jun-18 17:30N 55°06' E 014°41'0 0.0
2017-Jun-18 17:00N 55°06' E 014°41'0 0.0
2017-Jun-18 16:30N 55°06' E 014°41'0 0.0
2017-Jun-18 16:00N 55°06' E 014°41'0 0.0
2017-Jun-18 15:30N 55°06' E 014°41'0 0.0
2017-Jun-18 15:00N 55°06' E 014°41'0 0.0
2017-Jun-18 14:00N 55°06' E 014°41'0 0.0
2017-Jun-18 13:30N 55°06' E 014°41'0 0.0
2017-Jun-18 13:00N 55°06' E 014°41'0 0.0
2017-Jun-18 12:30N 55°06' E 014°41'0 0.0
2017-Jun-18 12:01N 55°06' E 014°41'0 0.0
2017-Jun-18 11:30N 55°06' E 014°41'0 0.0
2017-Jun-18 11:00N 55°06' E 014°41'0 0.0
2017-Jun-18 10:30N 55°06' E 014°41'0 0.0
2017-Jun-18 10:00N 55°06' E 014°41'0 0.0
2017-Jun-18 09:30N 55°06' E 014°41'0 0.0
2017-Jun-18 09:00N 55°06' E 014°41'0 0.0
2017-Jun-18 08:30N 55°06' E 014°41'0 0.0
2017-Jun-18 08:00N 55°06' E 014°41'0 0.0
2017-Jun-18 07:30N 55°06' E 014°41'0 0.0
2017-Jun-18 07:00N 55°06' E 014°41'0 0.0
2017-Jun-18 06:30N 55°06' E 014°41'0 0.0
2017-Jun-18 06:00N 55°06' E 014°41'0 0.0
2017-Jun-18 05:30N 55°06' E 014°41'0 0.0
2017-Jun-18 05:00N 55°06' E 014°41'0 0.0
2017-Jun-18 04:30N 55°06' E 014°41'0 0.0
2017-Jun-18 04:00N 55°06' E 014°41'0 0.0
2017-Jun-18 03:30N 55°06' E 014°41'0 0.0
2017-Jun-18 03:00N 55°06' E 014°41'0 0.0
2017-Jun-18 02:30N 55°06' E 014°41'0 0.0
2017-Jun-18 02:00N 55°06' E 014°41'0 0.0
2017-Jun-18 01:30N 55°06' E 014°41'0 0.0
2017-Jun-18 01:00N 55°06' E 014°41'0 0.0
2017-Jun-18 00:30N 55°06' E 014°41'0 0.0
2017-Jun-18 00:00N 55°06' E 014°41'0 0.0
2017-Jun-17 23:30N 55°06' E 014°41'0 0.0
2017-Jun-17 23:00N 55°06' E 014°41'0 0.0
2017-Jun-17 22:30N 55°06' E 014°41'0 0.0
2017-Jun-17 22:00N 55°06' E 014°41'0 0.0
2017-Jun-17 21:30N 55°06' E 014°41'0 0.0
2017-Jun-17 21:00N 55°06' E 014°41'0 0.0
2017-Jun-17 20:30N 55°06' E 014°41'0 0.0
2017-Jun-17 20:01N 55°06' E 014°41'0 0.0
2017-Jun-17 19:30N 55°06' E 014°41'0 0.0
2017-Jun-17 19:00N 55°06' E 014°41'0 0.0
2017-Jun-17 18:30N 55°06' E 014°41'0 0.0
2017-Jun-17 18:01N 55°06' E 014°41'0 0.0
2017-Jun-17 17:30N 55°06' E 014°41'0 0.0
2017-Jun-17 17:00N 55°06' E 014°41'0 0.0
2017-Jun-17 16:30N 55°06' E 014°41'1 1.4
2017-Jun-17 16:00N 55°05' E 014°41'3 5.6
2017-Jun-17 15:30N 55°03' E 014°40'0 0.9
2017-Jun-17 15:01N 55°02' E 014°41'0 0.0
2017-Jun-17 14:30N 55°02' E 014°41'0 0.0
2017-Jun-17 13:30N 55°02' E 014°41'0 0.0
2017-Jun-17 13:00N 55°02' E 014°41'0 0.0
2017-Jun-17 12:31N 55°02' E 014°41'0 0.0
2017-Jun-17 12:00N 55°02' E 014°41'0 0.0
2017-Jun-17 11:30N 55°02' E 014°41'2 4.9
2017-Jun-17 11:00N 55°05' E 014°41'1 2.8
2017-Jun-17 10:30N 55°06' E 014°41'0 0.0
2017-Jun-17 10:00N 55°06' E 014°41'0 0.0
2017-Jun-17 09:30N 55°06' E 014°41'0 0.0
2017-Jun-17 09:00N 55°06' E 014°41'0 0.0
2017-Jun-17 08:30N 55°06' E 014°41'0 0.0
2017-Jun-17 08:00N 55°06' E 014°41'2 4.0
2017-Jun-17 07:30N 55°04' E 014°40'2 4.2
2017-Jun-17 07:00N 55°02' E 014°42'2 4.4
2017-Jun-17 06:30N 55°00' E 014°44'2 4.6
2017-Jun-17 06:00N 54°59' E 014°47'2 4.2
2017-Jun-17 05:30N 54°57' E 014°49'1 1.8
2017-Jun-17 05:00N 54°56' E 014°50'0 0.0
2017-Jun-17 04:30N 54°56' E 014°50'1 2.0
2017-Jun-17 04:00N 54°57' E 014°49'4 7.9
2017-Jun-17 03:30N 55°00' E 014°45'4 8.1
2017-Jun-17 03:00N 55°04' E 014°42'2 4.0
2017-Jun-17 02:30N 55°06' E 014°41'0 0.0
2017-Jun-17 02:01N 55°06' E 014°41'0 0.0
2017-Jun-17 01:30N 55°06' E 014°41'0 0.0
2017-Jun-17 01:00N 55°06' E 014°41'0 0.0
2017-Jun-17 00:30N 55°06' E 014°41'1 2.4
2017-Jun-17 00:00N 55°05' E 014°40'2 4.0
2017-Jun-16 23:30N 55°03' E 014°40'2 3.8
2017-Jun-16 23:00N 55°01' E 014°42'2 3.9
2017-Jun-16 22:30N 54°60' E 014°44'2 3.6
2017-Jun-16 22:00N 54°59' E 014°46'2 3.6
2017-Jun-16 21:30N 54°57' E 014°48'1 2.8
2017-Jun-16 21:00N 54°56' E 014°50'0 0.0
2017-Jun-16 20:30N 54°56' E 014°50'0 0.1
2017-Jun-16 20:00N 54°56' E 014°50'4 7.7
2017-Jun-16 19:30N 54°60' E 014°47'4 8.0
2017-Jun-16 19:00N 55°03' E 014°43'3 6.2
2017-Jun-16 18:30N 55°06' E 014°41'0 0.0
2017-Jun-16 18:00N 55°06' E 014°41'0 0.0
2017-Jun-16 17:30N 55°06' E 014°41'0 0.0
2017-Jun-16 17:00N 55°06' E 014°41'1 1.7
2017-Jun-16 16:30N 55°05' E 014°40'2 3.4
2017-Jun-16 16:00N 55°04' E 014°40'2 4.2
2017-Jun-16 15:30N 55°02' E 014°41'2 4.1
2017-Jun-16 15:00N 55°00' E 014°44'4 4.1
2017-Jun-16 14:00N 54°57' E 014°48'1 2.7
2017-Jun-16 13:31N 54°56' E 014°50'0 0.0
2017-Jun-16 13:00N 54°56' E 014°50'0 0.0
2017-Jun-16 12:31N 54°56' E 014°50'3 6.2
2017-Jun-16 12:00N 54°59' E 014°47'4 7.7
2017-Jun-16 11:30N 55°02' E 014°44'4 7.5
2017-Jun-16 11:01N 55°05' E 014°41'1 1.1
2017-Jun-16 10:31N 55°06' E 014°41'0 0.0
2017-Jun-16 10:00N 55°06' E 014°41'0 0.0
2017-Jun-16 09:30N 55°06' E 014°41'0 0.5
2017-Jun-16 09:00N 55°06' E 014°41'2 5.0
2017-Jun-16 08:30N 55°03' E 014°42'3 5.0
2017-Jun-16 08:00N 55°01' E 014°45'3 5.4
2017-Jun-16 07:30N 54°59' E 014°48'3 5.2
2017-Jun-16 07:00N 54°57' E 014°51'0 0.0
2017-Jun-16 06:30N 54°57' E 014°51'0 0.0
2017-Jun-16 06:00N 54°57' E 014°51'0 0.8
2017-Jun-16 05:30N 54°57' E 014°50'4 7.5
2017-Jun-16 05:00N 55°00' E 014°46'4 7.3
2017-Jun-16 04:30N 55°03' E 014°42'3 5.2
2017-Jun-16 04:00N 55°06' E 014°41'0 0.0
2017-Jun-16 03:30N 55°06' E 014°41'0 0.0
2017-Jun-16 03:00N 55°06' E 014°41'0 0.0
2017-Jun-16 02:30N 55°06' E 014°41'2 3.5
2017-Jun-16 02:00N 55°04' E 014°41'2 4.2
2017-Jun-16 01:30N 55°02' E 014°41'0 0.1
2017-Jun-16 01:01N 55°02' E 014°41'0 0.0
2017-Jun-16 00:31N 55°02' E 014°41'0 0.0
2017-Jun-16 00:00N 55°02' E 014°41'0 0.0
2017-Jun-15 23:30N 55°02' E 014°41'0 0.0
2017-Jun-15 23:00N 55°02' E 014°41'0 0.1
2017-Jun-15 22:30N 55°02' E 014°41'0 0.0
2017-Jun-15 22:00N 55°02' E 014°41'0 0.8
2017-Jun-15 21:30N 55°03' E 014°41'3 6.5
2017-Jun-15 21:01N 55°06' E 014°41'0 0.3
2017-Jun-15 20:30N 55°06' E 014°41'0 0.0
2017-Jun-15 20:00N 55°06' E 014°41'0 0.0
2017-Jun-15 19:30N 55°06' E 014°41'1 1.7
2017-Jun-15 19:00N 55°05' E 014°41'3 6.3
2017-Jun-15 18:31N 55°02' E 014°41'0 0.0
2017-Jun-15 18:00N 55°02' E 014°41'0 0.0
2017-Jun-15 17:30N 55°02' E 014°41'0 0.0
2017-Jun-15 17:00N 55°02' E 014°41'0 0.0
2017-Jun-15 16:30N 55°02' E 014°41'0 0.1
2017-Jun-15 16:00N 55°02' E 014°41'0 0.1
2017-Jun-15 15:30N 55°02' E 014°41'0 0.0
2017-Jun-15 15:00N 55°02' E 014°41'0 0.0
2017-Jun-15 14:30N 55°02' E 014°41'0 0.0
2017-Jun-15 13:30N 55°02' E 014°41'0 0.0
2017-Jun-15 13:00N 55°02' E 014°41'1 2.3
2017-Jun-15 12:30N 55°03' E 014°41'3 5.4
2017-Jun-15 12:00N 55°06' E 014°41'0 0.0
2017-Jun-15 11:30N 55°06' E 014°41'0 0.0
2017-Jun-15 11:00N 55°06' E 014°41'0 0.0
2017-Jun-15 10:30N 55°06' E 014°41'2 4.4
2017-Jun-15 10:00N 55°04' E 014°41'2 3.3
2017-Jun-15 09:30N 55°02' E 014°41'0 0.0
2017-Jun-15 09:00N 55°02' E 014°41'0 0.1
2017-Jun-15 08:30N 55°02' E 014°41'0 0.0
2017-Jun-15 08:00N 55°02' E 014°41'0 0.0
2017-Jun-15 07:30N 55°02' E 014°41'0 0.0
2017-Jun-15 07:00N 55°02' E 014°41'0 0.0
2017-Jun-15 06:30N 55°02' E 014°41'0 0.0
2017-Jun-15 06:01N 55°02' E 014°41'4 7.0
2017-Jun-15 05:30N 55°06' E 014°41'0 0.7
2017-Jun-15 05:00N 55°06' E 014°41'0 0.0
2017-Jun-15 04:30N 55°06' E 014°41'0 0.0
2017-Jun-15 04:00N 55°06' E 014°41'0 0.0
2017-Jun-15 03:30N 55°06' E 014°41'0 0.0
2017-Jun-15 03:00N 55°06' E 014°41'0 0.0
2017-Jun-15 02:31N 55°06' E 014°41'3 5.8
2017-Jun-15 02:00N 55°03' E 014°41'1 1.8
2017-Jun-15 01:30N 55°02' E 014°41'0 0.0
2017-Jun-15 01:01N 55°02' E 014°41'0 0.0
2017-Jun-15 00:30N 55°02' E 014°41'0 0.0
2017-Jun-15 00:00N 55°02' E 014°41'0 0.0
2017-Jun-14 23:30N 55°02' E 014°41'0 0.0
2017-Jun-14 23:00N 55°02' E 014°41'0 0.4
2017-Jun-14 22:30N 55°02' E 014°41'4 7.2
2017-Jun-14 22:00N 55°06' E 014°41'0 0.1
2017-Jun-14 21:30N 55°06' E 014°41'0 0.0
2017-Jun-14 21:00N 55°06' E 014°41'0 0.0
2017-Jun-14 20:31N 55°06' E 014°41'0 0.6
2017-Jun-14 20:00N 55°06' E 014°41'3 6.0
2017-Jun-14 19:30N 55°03' E 014°41'1 1.3
2017-Jun-14 19:00N 55°02' E 014°41'0 0.0
2017-Jun-14 18:30N 55°02' E 014°41'0 0.0
2017-Jun-14 18:00N 55°02' E 014°41'0 0.0
2017-Jun-14 17:30N 55°02' E 014°41'0 0.1
2017-Jun-14 17:00N 55°02' E 014°41'0 0.0
2017-Jun-14 16:30N 55°02' E 014°41'0 0.1
2017-Jun-14 16:00N 55°02' E 014°41'0 0.0
2017-Jun-14 15:31N 55°02' E 014°41'3 6.2
2017-Jun-14 15:00N 55°05' E 014°41'1 0.7
2017-Jun-14 14:00N 55°06' E 014°41'0 0.0
2017-Jun-14 13:30N 55°06' E 014°41'1 1.4
2017-Jun-14 13:01N 55°05' E 014°40'2 4.0
2017-Jun-14 12:30N 55°03' E 014°40'1 2.5
2017-Jun-14 12:00N 55°02' E 014°41'0 0.0
2017-Jun-14 11:30N 55°02' E 014°41'0 0.0
2017-Jun-14 11:00N 55°02' E 014°41'0 0.0
2017-Jun-14 10:30N 55°02' E 014°41'0 0.0
2017-Jun-14 10:00N 55°02' E 014°41'3 5.7
2017-Jun-14 09:31N 55°05' E 014°40'1 2.2
2017-Jun-14 09:00N 55°06' E 014°41'0 0.0
2017-Jun-14 08:30N 55°06' E 014°41'0 0.0
2017-Jun-14 08:00N 55°06' E 014°41'0 0.0
2017-Jun-14 07:30N 55°06' E 014°41'0 0.0
2017-Jun-14 07:00N 55°06' E 014°41'0 0.2
2017-Jun-14 06:31N 55°06' E 014°41'0 0.0
2017-Jun-14 06:00N 55°06' E 014°41'1 2.6
2017-Jun-14 05:31N 55°05' E 014°40'2 4.8
2017-Jun-14 05:00N 55°02' E 014°41'0 0.2
2017-Jun-14 04:31N 55°02' E 014°41'0 0.0
2017-Jun-14 04:00N 55°02' E 014°41'0 0.0
2017-Jun-14 03:30N 55°02' E 014°41'0 0.1
2017-Jun-14 03:00N 55°02' E 014°41'0 0.0
2017-Jun-14 02:31N 55°02' E 014°41'0 0.1
2017-Jun-14 02:01N 55°02' E 014°41'0 0.6
2017-Jun-14 01:30N 55°02' E 014°41'3 6.8
2017-Jun-14 01:01N 55°06' E 014°41'0 0.3
2017-Jun-14 00:30N 55°06' E 014°41'0 0.0
2017-Jun-14 00:01N 55°06' E 014°41'0 0.0
2017-Jun-13 23:31N 55°06' E 014°41'1 1.8
2017-Jun-13 23:01N 55°05' E 014°40'2 3.9
2017-Jun-13 22:30N 55°03' E 014°40'1 2.6
2017-Jun-13 22:01N 55°02' E 014°41'0 0.0
2017-Jun-13 21:31N 55°02' E 014°41'0 0.1
2017-Jun-13 21:00N 55°02' E 014°41'0 0.0
2017-Jun-13 20:30N 55°02' E 014°41'0 0.0
2017-Jun-13 20:00N 55°02' E 014°41'0 0.1
2017-Jun-13 19:31N 55°02' E 014°41'0 0.0
2017-Jun-13 19:00N 55°02' E 014°41'0 0.0
2017-Jun-13 18:31N 55°02' E 014°41'0 0.0
2017-Jun-13 18:00N 55°02' E 014°41'0 0.0
2017-Jun-13 17:31N 55°02' E 014°41'1 2.1
2017-Jun-13 17:01N 55°01' E 014°42'2 4.5
2017-Jun-13 16:30N 54°59' E 014°43'2 3.5
2017-Jun-13 16:00N 54°58' E 014°45'1 2.4
2017-Jun-13 15:30N 54°58' E 014°47'2 4.9
2017-Jun-13 15:00N 54°60' E 014°45'2 4.7
2017-Jun-13 14:30N 55°02' E 014°44'4 4.3
2017-Jun-13 13:30N 55°06' E 014°41'0 0.0
2017-Jun-13 13:01N 55°06' E 014°41'0 0.0
2017-Jun-13 12:30N 55°06' E 014°41'0 0.0
2017-Jun-13 12:00N 55°06' E 014°41'0 0.0
2017-Jun-13 11:31N 55°06' E 014°41'0 0.0
2017-Jun-13 11:01N 55°06' E 014°41'0 0.0
2017-Jun-13 10:31N 55°06' E 014°41'0 0.0
2017-Jun-13 10:01N 55°06' E 014°41'0 0.0
2017-Jun-13 09:31N 55°06' E 014°41'0 0.0
2017-Jun-13 09:01N 55°06' E 014°41'0 0.0
2017-Jun-13 08:31N 55°06' E 014°41'0 0.0
2017-Jun-13 08:01N 55°06' E 014°41'0 0.0
2017-Jun-13 07:30N 55°06' E 014°41'0 0.0
2017-Jun-13 07:00N 55°06' E 014°41'0 0.0
2017-Jun-13 06:31N 55°06' E 014°41'0 0.0
2017-Jun-13 06:00N 55°06' E 014°41'0 0.0
2017-Jun-13 05:31N 55°06' E 014°41'0 0.0
2017-Jun-13 05:00N 55°06' E 014°41'0 0.0
2017-Jun-13 04:30N 55°06' E 014°41'0 0.0
2017-Jun-13 04:00N 55°06' E 014°41'0 0.0
2017-Jun-13 03:31N 55°06' E 014°41'0 0.0
2017-Jun-13 03:01N 55°06' E 014°41'0 0.0
2017-Jun-13 02:31N 55°06' E 014°41'0 0.0
2017-Jun-13 02:01N 55°06' E 014°41'0 0.0
2017-Jun-13 01:30N 55°06' E 014°41'0 0.0
2017-Jun-13 01:00N 55°06' E 014°41'0 0.0
2017-Jun-13 00:31N 55°06' E 014°41'0 0.0
2017-Jun-13 00:00N 55°06' E 014°41'0 0.0
2017-Jun-12 23:30N 55°06' E 014°41'0 0.0
2017-Jun-12 23:00N 55°06' E 014°41'0 0.0
2017-Jun-12 22:31N 55°06' E 014°41'0 0.0
2017-Jun-12 22:01N 55°06' E 014°41'0 0.0
2017-Jun-12 21:30N 55°06' E 014°41'0 0.0
2017-Jun-12 21:00N 55°06' E 014°41'0 0.0
2017-Jun-12 20:30N 55°06' E 014°41'0 0.0
2017-Jun-12 20:00N 55°06' E 014°41'  

Dump ship's entire track history